createdAt,value
2023-04-18T00:04:33.998Z,100189.13
2023-04-18T00:09:37.526Z,100185.53
2023-04-18T00:14:42.021Z,100183.00
2023-04-18T00:19:45.315Z,100176.66
2023-04-18T00:24:48.954Z,100174.88
2023-04-18T00:29:53.359Z,100180.75
2023-04-18T00:34:56.383Z,100178.03
2023-04-18T00:39:59.414Z,100186.88
2023-04-18T00:45:04.408Z,100185.94
2023-04-18T00:50:09.214Z,100176.41
2023-04-18T00:55:12.659Z,100181.56
2023-04-18T01:00:18.296Z,100178.97
2023-04-18T01:05:22.102Z,100167.97
2023-04-18T01:10:25.614Z,100172.38
2023-04-18T01:15:30.122Z,100175.94
2023-04-18T01:20:35.337Z,100169.69
2023-04-18T01:25:40.228Z,100162.16
2023-04-18T01:30:43.274Z,100163.50
2023-04-18T01:35:46.333Z,100158.31
2023-04-18T01:40:51.145Z,100161.13
2023-04-18T01:45:54.211Z,100159.81
2023-04-18T01:50:57.266Z,100154.66
2023-04-18T01:56:01.658Z,100143.88
2023-04-18T02:01:04.946Z,100145.81
2023-04-18T02:06:08.497Z,100142.63
2023-04-18T02:11:13.130Z,100146.28
2023-04-18T02:16:16.319Z,100143.81
2023-04-18T02:21:19.488Z,100138.75
2023-04-18T02:26:23.901Z,100150.63
2023-04-18T02:31:27.021Z,100156.44
2023-04-18T02:36:30.894Z,100142.47
2023-04-18T02:41:37.626Z,100145.03
2023-04-18T02:46:40.685Z,100140.09
2023-04-18T02:51:43.741Z,100149.78
2023-04-18T02:56:48.197Z,100149.56
2023-04-18T03:01:51.302Z,100158.31
2023-04-18T03:06:55.951Z,100155.72
2023-04-18T03:12:02.411Z,100163.16
2023-04-18T03:17:06.087Z,100154.97
2023-04-18T03:22:09.156Z,100159.94
2023-04-18T03:27:13.813Z,100154.13
2023-04-18T03:32:17.348Z,100158.03
2023-04-18T03:37:20.490Z,100159.97
2023-04-18T03:42:24.928Z,100157.59
2023-04-18T03:47:28.079Z,100162.34
2023-04-18T03:52:31.121Z,100168.06
2023-04-18T03:57:35.606Z,100167.31
2023-04-18T04:02:38.912Z,100166.00
2023-04-18T04:07:42.019Z,100160.72
2023-04-18T04:12:46.876Z,100167.06
2023-04-18T04:17:51.386Z,100172.25
2023-04-18T04:22:55.428Z,100161.06
2023-04-18T04:28:01.850Z,100168.94
2023-04-18T04:33:06.481Z,100174.41
2023-04-18T04:38:09.734Z,100181.09
2023-04-18T04:43:15.392Z,100185.59
2023-04-18T04:48:20.513Z,100179.16
2023-04-18T04:53:24.104Z,100182.03
2023-04-18T04:58:29.033Z,100185.81
2023-04-18T05:03:32.650Z,100195.25
2023-04-18T05:08:36.307Z,100190.22
2023-04-18T05:13:40.737Z,100199.06
2023-04-18T05:18:44.066Z,100199.34
2023-04-18T05:23:47.255Z,100205.91
2023-04-18T05:28:51.740Z,100201.34
2023-04-18T05:33:54.879Z,100205.44
2023-04-18T05:38:57.933Z,100199.59
2023-04-18T05:44:05.381Z,100203.19
2023-04-18T05:49:09.084Z,100206.78
2023-04-18T05:54:12.371Z,100210.63
2023-04-18T05:59:17.085Z,100206.19
2023-04-18T06:04:20.842Z,100219.47
2023-04-18T06:09:24.217Z,100230.00
2023-04-18T06:14:29.990Z,100229.44
2023-04-18T06:19:33.018Z,100235.25
2023-04-18T06:24:37.287Z,100239.94
2023-04-18T06:29:43.214Z,100252.34
2023-04-18T06:34:46.246Z,100252.22
2023-04-18T06:39:49.288Z,100250.00
2023-04-18T06:44:53.642Z,100257.88
2023-04-18T06:49:56.735Z,100250.34
2023-04-18T06:54:59.831Z,100257.00
2023-04-18T07:00:04.834Z,100261.06
2023-04-18T07:05:08.822Z,100265.25
2023-04-18T07:10:11.915Z,100256.25
2023-04-18T07:15:16.789Z,100252.91
2023-04-18T07:20:19.820Z,100260.41
2023-04-18T07:25:23.362Z,100267.78
2023-04-18T07:30:27.729Z,100276.00
2023-04-18T07:35:31.526Z,100265.31
2023-04-18T07:40:34.552Z,100273.56
2023-04-18T07:45:39.388Z,100265.03
2023-04-18T07:50:42.436Z,100274.75
2023-04-18T07:55:45.664Z,100262.66
2023-04-18T08:00:50.108Z,100268.25
2023-04-18T08:05:53.504Z,100278.91
2023-04-18T08:10:56.540Z,100285.94
2023-04-18T08:16:02.591Z,100287.00
2023-04-18T08:21:06.499Z,100290.56
2023-04-18T08:26:09.552Z,100294.91
2023-04-18T08:31:15.226Z,100291.06
2023-04-18T08:36:18.412Z,100279.75
2023-04-18T08:41:23.525Z,100284.31
2023-04-18T08:46:29.928Z,100285.81
2023-04-18T08:51:33.893Z,100296.13
2023-04-18T08:56:38.331Z,100296.03
2023-04-18T09:01:56.171Z,100284.31
2023-04-18T09:06:59.249Z,100284.28
2023-04-18T09:12:07.774Z,100285.34
2023-04-18T09:17:13.609Z,100274.50
2023-04-18T09:22:18.692Z,100267.59
2023-04-18T09:27:23.226Z,100276.25
2023-04-18T09:32:30.857Z,100271.38
2023-04-18T09:37:34.019Z,100277.22
2023-04-18T09:42:37.334Z,100281.75
2023-04-18T09:47:42.229Z,100282.69
2023-04-18T09:52:47.085Z,100284.66
2023-04-18T09:57:51.773Z,100274.47
2023-04-18T10:02:59.322Z,100269.69
2023-04-18T10:08:03.143Z,100282.50
2023-04-18T10:13:08.342Z,100275.28
2023-04-18T10:18:16.924Z,100271.91
2023-04-18T10:23:37.269Z,100272.25
2023-04-18T10:28:54.299Z,100273.81
2023-04-18T10:34:05.344Z,100272.09
2023-04-18T10:39:23.490Z,100264.56
2023-04-18T10:44:27.501Z,100257.00
2023-04-18T10:49:35.442Z,100265.41
2023-04-18T10:54:42.817Z,100250.78
2023-04-18T10:59:49.790Z,100260.31
2023-04-18T11:04:55.646Z,100253.00
2023-04-18T11:09:58.677Z,100237.72
2023-04-18T11:15:02.992Z,100248.41
2023-04-18T11:20:11.045Z,100236.09
2023-04-18T11:25:14.667Z,100241.69
2023-04-18T11:30:18.552Z,100232.94
2023-04-18T11:35:23.141Z,100225.44
2023-04-18T11:40:26.245Z,100237.06
2023-04-18T11:45:29.673Z,100215.63
2023-04-18T11:50:37.189Z,100230.84
2023-04-18T11:55:40.233Z,100236.53
2023-04-18T12:00:43.269Z,100227.13
2023-04-18T12:05:48.268Z,100217.13
2023-04-18T12:10:53.449Z,100228.78
2023-04-18T12:15:56.656Z,100231.88
2023-04-18T12:21:02.349Z,100224.09
2023-04-18T12:26:07.029Z,100218.69
2023-04-18T12:31:10.987Z,100224.34
2023-04-18T12:36:15.361Z,100227.84
2023-04-18T12:41:18.369Z,100223.09
2023-04-18T12:46:21.431Z,100223.69
2023-04-18T12:51:26.084Z,100222.00
2023-04-18T12:56:29.107Z,100219.72
2023-04-18T13:01:32.206Z,100215.44
2023-04-18T13:06:37.579Z,100217.38
2023-04-18T13:11:40.622Z,100223.31
2023-04-18T13:16:44.179Z,100227.66
2023-04-18T13:21:49.660Z,100219.34
2023-04-18T13:26:52.769Z,100226.91
2023-04-18T13:31:57.968Z,100225.41
2023-04-18T13:37:03.292Z,100222.34
2023-04-18T13:42:07.613Z,100220.38
2023-04-18T13:47:10.852Z,100221.34
2023-04-18T13:52:15.436Z,100229.66
2023-04-18T13:57:18.449Z,100219.75
2023-04-18T14:02:21.545Z,100227.31
2023-04-18T14:07:26.175Z,100224.19
2023-04-18T14:12:29.191Z,100224.34
2023-04-18T14:17:32.304Z,100240.25
2023-04-18T14:22:36.709Z,100223.47
2023-04-18T14:27:40.221Z,100221.91
2023-04-18T14:32:43.409Z,100228.59
2023-04-18T14:37:47.739Z,100228.81
2023-04-18T14:42:50.924Z,100231.69
2023-04-18T14:47:55.509Z,100226.91
2023-04-18T14:53:00.324Z,100236.00
2023-04-18T14:58:03.361Z,100237.50
2023-04-18T15:03:08.244Z,100231.16
2023-04-18T15:08:15.774Z,100231.72
2023-04-18T15:13:18.854Z,100235.94
2023-04-18T15:18:21.902Z,100230.63
2023-04-18T15:23:26.453Z,100251.53
2023-04-18T15:28:29.832Z,100239.50
2023-04-18T15:33:32.848Z,100242.91
2023-04-18T15:38:37.263Z,100242.91
2023-04-18T15:43:41.667Z,100238.22
2023-04-18T15:48:44.684Z,100249.66
2023-04-18T15:53:49.428Z,100241.31
2023-04-18T15:58:53.132Z,100245.50
2023-04-18T16:03:56.277Z,100255.13
2023-04-18T16:09:00.733Z,100251.50
2023-04-18T16:14:03.793Z,100255.13
2023-04-18T16:19:07.270Z,100259.13
2023-04-18T16:24:12.246Z,100241.03
2023-04-18T16:29:15.557Z,100253.09
2023-04-18T16:34:18.607Z,100255.50
2023-04-18T16:39:22.967Z,100265.53
2023-04-18T16:44:26.363Z,100259.16
2023-04-18T16:49:29.359Z,100263.22
2023-04-18T16:54:33.785Z,100257.84
2023-04-18T16:59:36.976Z,100271.53
2023-04-18T17:04:40.986Z,100269.59
2023-04-18T17:09:45.467Z,100282.13
2023-04-18T17:14:48.494Z,100289.66
2023-04-18T17:19:51.505Z,100285.84
2023-04-18T17:24:55.853Z,100298.81
2023-04-18T17:29:58.964Z,100297.81
2023-04-18T17:35:05.150Z,100290.09
2023-04-18T17:40:11.571Z,100296.44
2023-04-18T17:45:15.082Z,100296.00
2023-04-18T17:50:18.367Z,100304.19
2023-04-18T17:55:22.768Z,100303.63
2023-04-18T18:00:26.355Z,100306.91
2023-04-18T18:05:30.016Z,100308.81
2023-04-18T18:10:34.697Z,100316.50
2023-04-18T18:15:38.234Z,100316.22
2023-04-18T18:20:42.512Z,100315.94
2023-04-18T18:25:46.892Z,100319.81
2023-04-18T18:30:50.496Z,100323.41
2023-04-18T18:35:54.607Z,100329.84
2023-04-18T18:41:02.319Z,100317.81
2023-04-18T18:46:06.618Z,100333.69
2023-04-18T18:51:09.781Z,100337.13
2023-04-18T18:56:14.543Z,100343.13
2023-04-18T19:01:17.605Z,100348.84
2023-04-18T19:06:20.635Z,100354.28
2023-04-18T19:11:24.988Z,100354.00
2023-04-18T19:16:28.097Z,100349.41
2023-04-18T19:21:31.272Z,100362.53
2023-04-18T19:26:36.572Z,100356.53
2023-04-18T19:31:40.152Z,100354.22
2023-04-18T19:36:43.168Z,100361.69
2023-04-18T19:41:48.051Z,100355.94
2023-04-18T19:46:51.058Z,100365.66
2023-04-18T19:51:54.717Z,100361.25
2023-04-18T19:56:59.049Z,100365.81
2023-04-18T20:02:05.689Z,100365.38
2023-04-18T20:07:09.499Z,100365.50
2023-04-18T20:12:14.353Z,100366.81
2023-04-18T20:17:17.488Z,100361.50
2023-04-18T20:22:20.590Z,100368.91
2023-04-18T20:27:25.092Z,100364.34
2023-04-18T20:32:28.612Z,100359.16
2023-04-18T20:37:36.368Z,100354.72
2023-04-18T20:42:40.746Z,100356.75
2023-04-18T20:47:44.000Z,100360.72
2023-04-18T20:52:47.242Z,100357.56
2023-04-18T20:57:51.613Z,100357.56
2023-04-18T21:02:54.748Z,100355.56
2023-04-18T21:07:59.526Z,100364.09
2023-04-18T21:13:03.910Z,100363.53
2023-04-18T21:18:07.001Z,100372.13
2023-04-18T21:23:10.271Z,100371.25
2023-04-18T21:28:14.680Z,100373.25
2023-04-18T21:33:19.171Z,100365.72
2023-04-18T21:38:25.362Z,100368.53
2023-04-18T21:43:29.735Z,100368.13
2023-04-18T21:48:32.768Z,100372.00
2023-04-18T21:53:35.826Z,100360.16
2023-04-18T21:58:40.226Z,100366.94
2023-04-18T22:03:43.440Z,100366.94
2023-04-18T22:08:46.746Z,100360.34
2023-04-18T22:13:53.967Z,100358.88
2023-04-18T22:18:57.807Z,100351.72
2023-04-18T22:24:01.241Z,100356.28
2023-04-18T22:29:05.580Z,100358.16
2023-04-18T22:34:08.608Z,100359.31
2023-04-18T22:39:12.391Z,100355.72
2023-04-18T22:44:16.962Z,100360.53
2023-04-18T22:49:20.371Z,100350.53
2023-04-18T22:54:23.919Z,100358.66
2023-04-18T22:59:28.297Z,100349.78
2023-04-18T23:04:34.319Z,100349.06
2023-04-18T23:09:37.357Z,100345.88
2023-04-18T23:14:42.791Z,100348.47
2023-04-18T23:19:46.255Z,100348.72
2023-04-18T23:24:49.258Z,100345.56
2023-04-18T23:29:54.003Z,100356.16
2023-04-18T23:34:57.349Z,100351.25
2023-04-18T23:40:01.132Z,100355.25
2023-04-18T23:45:06.611Z,100346.97
2023-04-18T23:50:10.881Z,100346.53
2023-04-18T23:55:14.377Z,100347.75
